createdAt,value
2019-05-19T00:04:29.749Z,24.40
2019-05-19T00:14:35.310Z,24.30
2019-05-19T00:24:42.464Z,24.20
2019-05-19T00:34:48.002Z,24.20
2019-05-19T00:44:53.485Z,24.10
2019-05-19T00:54:58.910Z,24.10
2019-05-19T01:05:07.467Z,24.10
2019-05-19T01:15:15.599Z,24.00
2019-05-19T01:25:22.375Z,24.00
2019-05-19T01:35:27.794Z,24.00
2019-05-19T01:45:33.247Z,24.00
2019-05-19T01:55:38.656Z,23.90
2019-05-19T02:05:50.040Z,23.90
2019-05-19T02:15:55.538Z,23.90
2019-05-19T02:26:00.943Z,23.90
2019-05-19T02:36:06.595Z,23.90
2019-05-19T02:46:12.094Z,23.80
2019-05-19T02:56:17.691Z,23.90
2019-05-19T03:06:24.271Z,23.80
2019-05-19T03:16:29.847Z,23.80
2019-05-19T03:26:35.283Z,23.80
2019-05-19T03:36:40.882Z,23.80
2019-05-19T03:46:46.364Z,23.80
2019-05-19T03:56:52.084Z,23.80
2019-05-19T04:06:57.631Z,23.80
2019-05-19T04:17:03.085Z,23.80
2019-05-19T04:27:08.738Z,23.70
2019-05-19T04:37:16.342Z,23.70
2019-05-19T04:47:21.822Z,23.70
2019-05-19T04:57:27.438Z,23.70
2019-05-19T05:07:32.903Z,23.70
2019-05-19T05:17:38.391Z,23.70
2019-05-19T05:27:45.024Z,23.70
2019-05-19T05:37:50.676Z,23.70
2019-05-19T05:47:56.188Z,23.70
2019-05-19T05:58:03.017Z,23.70
2019-05-19T06:08:08.416Z,23.70
2019-05-19T06:18:13.941Z,23.70
2019-05-19T06:28:19.332Z,23.60
2019-05-19T06:38:24.870Z,23.70
2019-05-19T06:48:30.300Z,23.60
2019-05-19T06:58:35.756Z,23.70
2019-05-19T07:08:41.261Z,23.70
2019-05-19T07:18:46.690Z,23.70
2019-05-19T07:28:52.127Z,23.70
2019-05-19T07:38:57.676Z,23.70
2019-05-19T07:49:03.865Z,23.70
2019-05-19T07:59:09.276Z,23.70
2019-05-19T08:09:14.989Z,23.80
2019-05-19T08:19:21.222Z,23.80
2019-05-19T08:29:27.786Z,23.80
2019-05-19T08:39:33.611Z,23.90
2019-05-19T08:49:39.009Z,23.70
2019-05-19T08:59:44.399Z,23.60
2019-05-19T09:09:49.910Z,23.50
2019-05-19T09:19:55.390Z,23.60
2019-05-19T09:30:00.932Z,23.80
2019-05-19T09:40:07.241Z,23.70
2019-05-19T09:50:13.002Z,23.60
2019-05-19T10:00:18.552Z,23.80
2019-05-19T10:11:14.373Z,23.80
2019-05-19T10:21:19.777Z,23.90
2019-05-19T10:31:25.365Z,23.90
2019-05-19T10:41:30.855Z,24.00
2019-05-19T10:51:36.247Z,24.00
2019-05-19T11:01:43.277Z,24.10
2019-05-19T11:11:48.724Z,24.10
2019-05-19T11:21:54.393Z,24.10
2019-05-19T11:31:59.867Z,24.10
2019-05-19T11:42:05.425Z,24.20
2019-05-19T11:52:10.868Z,24.20
2019-05-19T12:02:16.412Z,24.20
2019-05-19T12:12:26.314Z,24.30
2019-05-19T12:22:31.887Z,24.30
2019-05-19T12:32:37.345Z,24.40
2019-05-19T12:42:44.720Z,24.40
2019-05-19T12:52:50.453Z,24.50
2019-05-19T13:02:55.913Z,24.50
2019-05-19T13:13:01.401Z,24.60
2019-05-19T13:23:06.900Z,24.70
2019-05-19T13:33:12.495Z,24.60
2019-05-19T13:43:18.007Z,24.50
2019-05-19T13:53:23.657Z,24.40
2019-05-19T14:03:29.134Z,24.40
2019-05-19T14:13:34.486Z,24.40
2019-05-19T14:23:40.034Z,24.40
2019-05-19T14:33:45.460Z,24.30
2019-05-19T14:43:50.930Z,24.20
2019-05-19T14:53:57.361Z,24.20
2019-05-19T15:04:02.716Z,24.10
2019-05-19T15:14:08.203Z,24.10
2019-05-19T15:24:13.787Z,24.00
2019-05-19T15:34:19.289Z,24.00
2019-05-19T15:44:24.867Z,23.90
2019-05-19T15:54:30.195Z,23.90
2019-05-19T16:04:35.524Z,23.90
2019-05-19T16:14:41.110Z,23.90
2019-05-19T16:24:49.460Z,23.80
2019-05-19T16:34:55.071Z,23.80
2019-05-19T16:45:00.521Z,23.80
2019-05-19T16:55:19.714Z,23.80
2019-05-19T17:05:25.140Z,23.70
2019-05-19T17:15:31.547Z,23.70
2019-05-19T17:25:37.006Z,23.70
2019-05-19T17:35:42.614Z,23.70
2019-05-19T17:45:48.149Z,23.70
2019-05-19T17:55:53.504Z,23.60
2019-05-19T18:05:59.087Z,23.60
2019-05-19T18:16:04.435Z,23.60
2019-05-19T18:26:10.061Z,23.60
2019-05-19T18:36:15.635Z,23.60
2019-05-19T18:46:21.009Z,23.60
2019-05-19T18:56:26.636Z,23.50
2019-05-19T19:06:32.383Z,23.50
2019-05-19T19:16:39.871Z,23.50
2019-05-19T19:26:45.351Z,23.50
2019-05-19T19:36:50.812Z,23.50
2019-05-19T19:46:56.212Z,23.50
2019-05-19T19:57:01.621Z,23.50
2019-05-19T20:07:07.124Z,23.50
2019-05-19T20:17:12.649Z,23.40
2019-05-19T20:27:18.006Z,23.40
2019-05-19T20:37:23.343Z,23.40
2019-05-19T20:47:28.783Z,23.40
2019-05-19T20:57:34.225Z,23.40
2019-05-19T21:07:39.738Z,23.30
2019-05-19T21:17:45.258Z,23.30
2019-05-19T21:27:50.636Z,23.30
2019-05-19T21:37:56.258Z,23.30
2019-05-19T21:48:01.740Z,23.30
2019-05-19T21:58:08.176Z,23.20
2019-05-19T22:08:16.608Z,23.20
2019-05-19T22:18:22.014Z,23.20
2019-05-19T22:28:27.358Z,23.20
2019-05-19T22:38:33.973Z,23.20
2019-05-19T22:48:41.692Z,23.20
2019-05-19T22:58:47.328Z,23.20
2019-05-19T23:08:52.708Z,23.10
2019-05-19T23:18:58.115Z,23.10
2019-05-19T23:29:03.534Z,23.10
2019-05-19T23:39:08.887Z,23.10
2019-05-19T23:49:15.119Z,23.10
2019-05-19T23:59:20.493Z,23.10
